sensor_id;sensor_type;location;lat;lon;timestamp;P1;durP1;ratioP1;P2;durP2;ratioP2
38487;SDS011;57384;51.986;4.458;2023-08-01T00:00:44;3.25;;;3.15;;
38487;SDS011;57384;51.986;4.458;2023-08-01T00:03:11;6.20;;;4.20;;
38487;SDS011;57384;51.986;4.458;2023-08-01T00:05:37;2.92;;;2.83;;
38487;SDS011;57384;51.986;4.458;2023-08-01T00:08:05;2.53;;;2.42;;
38487;SDS011;57384;51.986;4.458;2023-08-01T00:10:31;2.97;;;2.88;;
38487;SDS011;57384;51.986;4.458;2023-08-01T00:12:58;3.00;;;2.90;;
38487;SDS011;57384;51.986;4.458;2023-08-01T00:15:34;2.80;;;2.70;;
38487;SDS011;57384;51.986;4.458;2023-08-01T00:18:09;3.38;;;3.28;;
38487;SDS011;57384;51.986;4.458;2023-08-01T00:20:36;3.25;;;3.15;;
38487;SDS011;57384;51.986;4.458;2023-08-01T00:23:02;2.85;;;2.75;;
38487;SDS011;57384;51.986;4.458;2023-08-01T00:25:35;4.03;;;3.83;;
38487;SDS011;57384;51.986;4.458;2023-08-01T00:28:01;3.25;;;3.15;;
38487;SDS011;57384;51.986;4.458;2023-08-01T00:30:28;2.85;;;2.75;;
38487;SDS011;57384;51.986;4.458;2023-08-01T00:32:55;2.63;;;2.53;;
38487;SDS011;57384;51.986;4.458;2023-08-01T00:35:23;2.90;;;2.80;;
38487;SDS011;57384;51.986;4.458;2023-08-01T00:37:50;2.72;;;2.63;;
38487;SDS011;57384;51.986;4.458;2023-08-01T00:40:17;3.92;;;3.75;;
38487;SDS011;57384;51.986;4.458;2023-08-01T00:42:44;3.13;;;3.03;;
38487;SDS011;57384;51.986;4.458;2023-08-01T00:45:11;4.03;;;3.83;;
38487;SDS011;57384;51.986;4.458;2023-08-01T00:47:37;2.97;;;2.88;;
38487;SDS011;57384;51.986;4.458;2023-08-01T00:50:04;3.83;;;3.63;;
38487;SDS011;57384;51.986;4.458;2023-08-01T00:52:32;3.78;;;3.58;;
38487;SDS011;57384;51.986;4.458;2023-08-01T00:54:59;3.33;;;3.22;;
38487;SDS011;57384;51.986;4.458;2023-08-01T00:57:26;2.58;;;2.47;;
38487;SDS011;57384;51.986;4.458;2023-08-01T00:59:57;3.65;;;3.55;;
38487;SDS011;57384;51.986;4.458;2023-08-01T01:02:25;3.15;;;3.05;;
38487;SDS011;57384;51.986;4.458;2023-08-01T01:04:51;4.53;;;4.35;;
38487;SDS011;57384;51.986;4.458;2023-08-01T01:07:19;5.97;;;5.57;;
38487;SDS011;57384;51.986;4.458;2023-08-01T01:09:50;3.80;;;3.70;;
38487;SDS011;57384;51.986;4.458;2023-08-01T01:12:18;3.25;;;3.15;;
38487;SDS011;57384;51.986;4.458;2023-08-01T01:14:46;4.43;;;4.07;;
38487;SDS011;57384;51.986;4.458;2023-08-01T01:17:14;4.70;;;4.40;;
38487;SDS011;57384;51.986;4.458;2023-08-01T01:19:45;5.60;;;5.13;;
38487;SDS011;57384;51.986;4.458;2023-08-01T01:22:12;4.05;;;3.95;;
38487;SDS011;57384;51.986;4.458;2023-08-01T01:24:39;5.38;;;5.07;;
38487;SDS011;57384;51.986;4.458;2023-08-01T01:27:07;4.63;;;4.40;;
38487;SDS011;57384;51.986;4.458;2023-08-01T01:29:35;4.05;;;3.95;;
38487;SDS011;57384;51.986;4.458;2023-08-01T01:32:03;4.10;;;4.00;;
38487;SDS011;57384;51.986;4.458;2023-08-01T01:34:33;4.10;;;3.92;;
38487;SDS011;57384;51.986;4.458;2023-08-01T01:37:00;5.10;;;4.90;;
38487;SDS011;57384;51.986;4.458;2023-08-01T01:39:27;4.07;;;3.97;;
38487;SDS011;57384;51.986;4.458;2023-08-01T01:41:54;4.43;;;4.22;;
38487;SDS011;57384;51.986;4.458;2023-08-01T01:44:20;4.22;;;4.13;;
38487;SDS011;57384;51.986;4.458;2023-08-01T01:46:56;4.10;;;3.92;;
38487;SDS011;57384;51.986;4.458;2023-08-01T01:49:23;4.40;;;4.28;;
38487;SDS011;57384;51.986;4.458;2023-08-01T01:51:50;4.70;;;4.45;;
38487;SDS011;57384;51.986;4.458;2023-08-01T01:54:17;3.90;;;3.80;;
38487;SDS011;57384;51.986;4.458;2023-08-01T01:56:44;4.22;;;4.03;;
38487;SDS011;57384;51.986;4.458;2023-08-01T01:59:13;3.80;;;3.70;;
38487;SDS011;57384;51.986;4.458;2023-08-01T02:01:40;4.65;;;4.45;;
38487;SDS011;57384;51.986;4.458;2023-08-01T02:04:07;3.35;;;3.25;;
38487;SDS011;57384;51.986;4.458;2023-08-01T02:06:34;4.70;;;4.40;;
38487;SDS011;57384;51.986;4.458;2023-08-01T02:09:02;4.78;;;4.60;;
38487;SDS011;57384;51.986;4.458;2023-08-01T02:11:28;4.45;;;4.25;;
38487;SDS011;57384;51.986;4.458;2023-08-01T02:13:55;4.17;;;4.07;;
38487;SDS011;57384;51.986;4.458;2023-08-01T02:16:22;3.78;;;3.67;;
38487;SDS011;57384;51.986;4.458;2023-08-01T02:18:49;4.45;;;4.35;;
38487;SDS011;57384;51.986;4.458;2023-08-01T02:21:17;4.45;;;4.35;;
38487;SDS011;57384;51.986;4.458;2023-08-01T02:23:46;4.20;;;4.10;;
38487;SDS011;57384;51.986;4.458;2023-08-01T02:26:14;5.05;;;4.85;;
38487;SDS011;57384;51.986;4.458;2023-08-01T02:28:41;6.25;;;6.05;;
38487;SDS011;57384;51.986;4.458;2023-08-01T02:31:09;5.13;;;4.93;;
38487;SDS011;57384;51.986;4.458;2023-08-01T02:33:37;6.05;;;5.85;;
38487;SDS011;57384;51.986;4.458;2023-08-01T02:36:06;5.32;;;5.13;;
38487;SDS011;57384;51.986;4.458;2023-08-01T02:38:35;3.95;;;3.85;;
38487;SDS011;57384;51.986;4.458;2023-08-01T02:41:02;5.28;;;5.07;;
38487;SDS011;57384;51.986;4.458;2023-08-01T02:43:29;6.93;;;6.70;;
38487;SDS011;57384;51.986;4.458;2023-08-01T02:45:56;7.35;;;7.00;;
38487;SDS011;57384;51.986;4.458;2023-08-01T02:48:23;5.43;;;5.22;;
38487;SDS011;57384;51.986;4.458;2023-08-01T02:50:49;5.65;;;5.45;;
38487;SDS011;57384;51.986;4.458;2023-08-01T02:53:17;4.75;;;4.60;;
38487;SDS011;57384;51.986;4.458;2023-08-01T02:55:44;5.43;;;5.22;;
38487;SDS011;57384;51.986;4.458;2023-08-01T02:58:10;4.15;;;4.05;;
38487;SDS011;57384;51.986;4.458;2023-08-01T03:00:38;4.03;;;3.92;;
38487;SDS011;57384;51.986;4.458;2023-08-01T03:03:06;5.70;;;5.38;;
38487;SDS011;57384;51.986;4.458;2023-08-01T03:05:37;4.72;;;4.43;;
38487;SDS011;57384;51.986;4.458;2023-08-01T03:08:04;5.20;;;5.00;;
38487;SDS011;57384;51.986;4.458;2023-08-01T03:10:31;3.90;;;3.80;;
38487;SDS011;57384;51.986;4.458;2023-08-01T03:12:59;4.32;;;4.22;;
38487;SDS011;57384;51.986;4.458;2023-08-01T03:15:26;4.95;;;4.75;;
38487;SDS011;57384;51.986;4.458;2023-08-01T03:17:54;4.18;;;4.07;;
38487;SDS011;57384;51.986;4.458;2023-08-01T03:20:24;3.90;;;3.80;;
38487;SDS011;57384;51.986;4.458;2023-08-01T03:22:50;4.30;;;4.18;;
38487;SDS011;57384;51.986;4.458;2023-08-01T03:25:18;11.48;;;5.38;;
38487;SDS011;57384;51.986;4.458;2023-08-01T03:27:45;5.82;;;5.53;;
38487;SDS011;57384;51.986;4.458;2023-08-01T03:30:12;4.72;;;4.55;;
38487;SDS011;57384;51.986;4.458;2023-08-01T03:32:40;5.80;;;5.60;;
38487;SDS011;57384;51.986;4.458;2023-08-01T03:35:07;6.75;;;6.22;;
38487;SDS011;57384;51.986;4.458;2023-08-01T03:37:34;4.30;;;4.20;;
38487;SDS011;57384;51.986;4.458;2023-08-01T03:40:02;4.78;;;4.63;;
38487;SDS011;57384;51.986;4.458;2023-08-01T03:42:30;6.05;;;5.85;;
38487;SDS011;57384;51.986;4.458;2023-08-01T03:44:57;6.18;;;5.97;;
38487;SDS011;57384;51.986;4.458;2023-08-01T03:47:23;5.43;;;5.22;;
38487;SDS011;57384;51.986;4.458;2023-08-01T03:49:51;6.03;;;5.82;;
38487;SDS011;57384;51.986;4.458;2023-08-01T03:52:18;7.00;;;6.80;;
38487;SDS011;57384;51.986;4.458;2023-08-01T03:54:45;6.05;;;5.85;;
38487;SDS011;57384;51.986;4.458;2023-08-01T03:57:12;6.43;;;6.03;;
38487;SDS011;57384;51.986;4.458;2023-08-01T03:59:39;6.25;;;6.05;;
38487;SDS011;57384;51.986;4.458;2023-08-01T04:02:07;5.75;;;5.25;;
38487;SDS011;57384;51.986;4.458;2023-08-01T04:04:35;5.63;;;5.43;;
38487;SDS011;57384;51.986;4.458;2023-08-01T04:07:03;5.95;;;5.75;;
38487;SDS011;57384;51.986;4.458;2023-08-01T04:09:30;4.63;;;4.45;;
38487;SDS011;57384;51.986;4.458;2023-08-01T04:11:56;5.32;;;5.13;;
38487;SDS011;57384;51.986;4.458;2023-08-01T04:14:24;4.60;;;4.45;;
38487;SDS011;57384;51.986;4.458;2023-08-01T04:16:50;4.53;;;4.43;;
38487;SDS011;57384;51.986;4.458;2023-08-01T04:19:18;4.88;;;4.68;;
38487;SDS011;57384;51.986;4.458;2023-08-01T04:21:45;6.95;;;5.95;;
38487;SDS011;57384;51.986;4.458;2023-08-01T04:24:17;5.37;;;5.17;;
38487;SDS011;57384;51.986;4.458;2023-08-01T04:26:44;4.35;;;4.15;;
38487;SDS011;57384;51.986;4.458;2023-08-01T04:29:12;4.10;;;4.00;;
38487;SDS011;57384;51.986;4.458;2023-08-01T04:31:39;4.57;;;4.38;;
38487;SDS011;57384;51.986;4.458;2023-08-01T04:34:06;3.30;;;3.20;;
38487;SDS011;57384;51.986;4.458;2023-08-01T04:36:34;3.92;;;3.83;;
38487;SDS011;57384;51.986;4.458;2023-08-01T04:39:03;5.40;;;5.10;;
38487;SDS011;57384;51.986;4.458;2023-08-01T04:41:36;4.18;;;4.07;;
38487;SDS011;57384;51.986;4.458;2023-08-01T04:44:02;4.18;;;4.07;;
38487;SDS011;57384;51.986;4.458;2023-08-01T04:46:30;4.93;;;4.65;;
38487;SDS011;57384;51.986;4.458;2023-08-01T04:48:58;3.97;;;3.88;;
38487;SDS011;57384;51.986;4.458;2023-08-01T04:51:25;4.93;;;4.63;;
38487;SDS011;57384;51.986;4.458;2023-08-01T04:53:52;3.55;;;3.45;;
38487;SDS011;57384;51.986;4.458;2023-08-01T04:56:20;4.82;;;4.63;;
38487;SDS011;57384;51.986;4.458;2023-08-01T04:58:46;4.13;;;3.92;;
38487;SDS011;57384;51.986;4.458;2023-08-01T05:01:14;5.18;;;4.88;;
38487;SDS011;57384;51.986;4.458;2023-08-01T05:03:41;5.20;;;4.95;;
38487;SDS011;57384;51.986;4.458;2023-08-01T05:06:07;5.00;;;4.80;;
38487;SDS011;57384;51.986;4.458;2023-08-01T05:08:34;5.22;;;4.80;;
38487;SDS011;57384;51.986;4.458;2023-08-01T05:11:00;4.75;;;4.45;;
38487;SDS011;57384;51.986;4.458;2023-08-01T05:13:28;4.00;;;3.90;;
38487;SDS011;57384;51.986;4.458;2023-08-01T05:15:55;4.88;;;4.68;;
38487;SDS011;57384;51.986;4.458;2023-08-01T05:18:21;4.68;;;4.47;;
38487;SDS011;57384;51.986;4.458;2023-08-01T05:20:48;4.85;;;4.60;;
38487;SDS011;57384;51.986;4.458;2023-08-01T05:23:20;3.60;;;3.50;;
38487;SDS011;57384;51.986;4.458;2023-08-01T05:25:49;4.55;;;4.35;;
38487;SDS011;57384;51.986;4.458;2023-08-01T05:28:18;3.75;;;3.65;;
38487;SDS011;57384;51.986;4.458;2023-08-01T05:30:44;4.83;;;4.63;;
38487;SDS011;57384;51.986;4.458;2023-08-01T05:33:11;4.50;;;4.28;;
38487;SDS011;57384;51.986;4.458;2023-08-01T05:35:39;4.53;;;4.33;;
38487;SDS011;57384;51.986;4.458;2023-08-01T05:38:06;3.40;;;3.30;;
38487;SDS011;57384;51.986;4.458;2023-08-01T05:40:35;4.55;;;4.35;;
38487;SDS011;57384;51.986;4.458;2023-08-01T05:43:02;4.87;;;4.63;;
38487;SDS011;57384;51.986;4.458;2023-08-01T05:45:28;3.95;;;3.85;;
38487;SDS011;57384;51.986;4.458;2023-08-01T05:47:56;3.75;;;3.65;;
38487;SDS011;57384;51.986;4.458;2023-08-01T05:50:22;4.23;;;4.13;;
38487;SDS011;57384;51.986;4.458;2023-08-01T05:52:49;4.67;;;4.47;;
38487;SDS011;57384;51.986;4.458;2023-08-01T05:55:15;5.20;;;4.93;;
38487;SDS011;57384;51.986;4.458;2023-08-01T05:57:42;5.20;;;4.80;;
38487;SDS011;57384;51.986;4.458;2023-08-01T06:00:08;4.28;;;4.18;;
38487;SDS011;57384;51.986;4.458;2023-08-01T06:02:36;3.38;;;3.28;;
38487;SDS011;57384;51.986;4.458;2023-08-01T06:05:05;4.32;;;4.22;;
38487;SDS011;57384;51.986;4.458;2023-08-01T06:07:32;3.80;;;3.70;;
38487;SDS011;57384;51.986;4.458;2023-08-01T06:09:58;5.20;;;4.87;;
38487;SDS011;57384;51.986;4.458;2023-08-01T06:12:25;3.00;;;2.90;;
38487;SDS011;57384;51.986;4.458;2023-08-01T06:14:53;3.60;;;3.50;;
38487;SDS011;57384;51.986;4.458;2023-08-01T06:17:19;4.43;;;4.22;;
38487;SDS011;57384;51.986;4.458;2023-08-01T06:19:48;4.78;;;4.57;;
38487;SDS011;57384;51.986;4.458;2023-08-01T06:22:15;4.07;;;3.97;;
38487;SDS011;57384;51.986;4.458;2023-08-01T06:24:42;4.50;;;4.35;;
38487;SDS011;57384;51.986;4.458;2023-08-01T06:27:09;5.95;;;5.75;;
38487;SDS011;57384;51.986;4.458;2023-08-01T06:29:36;5.27;;;5.07;;
38487;SDS011;57384;51.986;4.458;2023-08-01T06:32:05;5.68;;;5.47;;
38487;SDS011;57384;51.986;4.458;2023-08-01T06:34:31;4.80;;;4.65;;
38487;SDS011;57384;51.986;4.458;2023-08-01T06:37:00;5.07;;;4.88;;
38487;SDS011;57384;51.986;4.458;2023-08-01T06:39:28;6.15;;;5.95;;
38487;SDS011;57384;51.986;4.458;2023-08-01T06:41:56;4.88;;;4.68;;
38487;SDS011;57384;51.986;4.458;2023-08-01T06:44:22;5.55;;;5.30;;
38487;SDS011;57384;51.986;4.458;2023-08-01T06:46:49;4.53;;;4.43;;
38487;SDS011;57384;51.986;4.458;2023-08-01T06:49:15;4.30;;;4.17;;
38487;SDS011;57384;51.986;4.458;2023-08-01T06:51:45;3.90;;;3.80;;
38487;SDS011;57384;51.986;4.458;2023-08-01T06:54:13;3.67;;;3.58;;
38487;SDS011;57384;51.986;4.458;2023-08-01T06:56:39;5.85;;;5.57;;
38487;SDS011;57384;51.986;4.458;2023-08-01T06:59:06;5.88;;;5.43;;
38487;SDS011;57384;51.986;4.458;2023-08-01T07:01:33;5.15;;;4.95;;
38487;SDS011;57384;51.986;4.458;2023-08-01T07:04:01;4.00;;;3.90;;
38487;SDS011;57384;51.986;4.458;2023-08-01T07:06:27;3.67;;;3.58;;
38487;SDS011;57384;51.986;4.458;2023-08-01T07:08:54;4.25;;;4.15;;
38487;SDS011;57384;51.986;4.458;2023-08-01T07:11:24;4.22;;;4.03;;
38487;SDS011;57384;51.986;4.458;2023-08-01T07:13:56;3.88;;;3.78;;
38487;SDS011;57384;51.986;4.458;2023-08-01T07:16:22;3.97;;;3.78;;
38487;SDS011;57384;51.986;4.458;2023-08-01T07:18:49;3.63;;;3.53;;
38487;SDS011;57384;51.986;4.458;2023-08-01T07:21:17;4.32;;;4.03;;
38487;SDS011;57384;51.986;4.458;2023-08-01T07:23:51;3.45;;;3.33;;
38487;SDS011;57384;51.986;4.458;2023-08-01T07:26:17;4.18;;;3.92;;
38487;SDS011;57384;51.986;4.458;2023-08-01T07:28:45;2.90;;;2.80;;
38487;SDS011;57384;51.986;4.458;2023-08-01T07:31:12;2.90;;;2.80;;
38487;SDS011;57384;51.986;4.458;2023-08-01T07:33:39;3.33;;;3.13;;
38487;SDS011;57384;51.986;4.458;2023-08-01T07:36:06;2.67;;;2.58;;
38487;SDS011;57384;51.986;4.458;2023-08-01T07:38:34;2.70;;;2.60;;
38487;SDS011;57384;51.986;4.458;2023-08-01T07:41:03;2.53;;;2.42;;
38487;SDS011;57384;51.986;4.458;2023-08-01T07:43:31;2.78;;;2.67;;
38487;SDS011;57384;51.986;4.458;2023-08-01T07:45:58;3.17;;;3.08;;
38487;SDS011;57384;51.986;4.458;2023-08-01T07:48:25;3.13;;;3.03;;
38487;SDS011;57384;51.986;4.458;2023-08-01T07:50:53;2.22;;;2.13;;
38487;SDS011;57384;51.986;4.458;2023-08-01T07:53:20;4.13;;;3.80;;
38487;SDS011;57384;51.986;4.458;2023-08-01T07:55:46;9.40;;;3.35;;
38487;SDS011;57384;51.986;4.458;2023-08-01T07:58:15;3.78;;;3.58;;
38487;SDS011;57384;51.986;4.458;2023-08-01T08:00:43;3.50;;;3.30;;
38487;SDS011;57384;51.986;4.458;2023-08-01T08:03:10;2.78;;;2.67;;
38487;SDS011;57384;51.986;4.458;2023-08-01T08:05:42;3.47;;;3.38;;
38487;SDS011;57384;51.986;4.458;2023-08-01T08:08:09;3.88;;;3.67;;
38487;SDS011;57384;51.986;4.458;2023-08-01T08:10:35;3.15;;;3.05;;
38487;SDS011;57384;51.986;4.458;2023-08-01T08:13:03;3.30;;;3.20;;
38487;SDS011;57384;51.986;4.458;2023-08-01T08:15:32;4.30;;;3.92;;
38487;SDS011;57384;51.986;4.458;2023-08-01T08:17:59;2.95;;;2.85;;
38487;SDS011;57384;51.986;4.458;2023-08-01T08:20:27;3.00;;;2.90;;
38487;SDS011;57384;51.986;4.458;2023-08-01T08:22:55;3.45;;;3.35;;
38487;SDS011;57384;51.986;4.458;2023-08-01T08:25:25;2.90;;;2.80;;
38487;SDS011;57384;51.986;4.458;2023-08-01T08:27:51;3.25;;;3.15;;
38487;SDS011;57384;51.986;4.458;2023-08-01T08:30:22;3.05;;;2.95;;
38487;SDS011;57384;51.986;4.458;2023-08-01T08:32:53;2.92;;;2.83;;
38487;SDS011;57384;51.986;4.458;2023-08-01T08:35:19;3.17;;;3.08;;
38487;SDS011;57384;51.986;4.458;2023-08-01T08:37:47;3.20;;;3.10;;
38487;SDS011;57384;51.986;4.458;2023-08-01T08:40:14;3.38;;;3.28;;
38487;SDS011;57384;51.986;4.458;2023-08-01T08:42:41;3.13;;;3.03;;
38487;SDS011;57384;51.986;4.458;2023-08-01T08:45:11;4.13;;;3.88;;
38487;SDS011;57384;51.986;4.458;2023-08-01T08:47:43;3.00;;;2.90;;
38487;SDS011;57384;51.986;4.458;2023-08-01T08:50:14;3.20;;;3.10;;
38487;SDS011;57384;51.986;4.458;2023-08-01T08:52:45;7.18;;;3.88;;
38487;SDS011;57384;51.986;4.458;2023-08-01T09:00:10;3.10;;;3.00;;
38487;SDS011;57384;51.986;4.458;2023-08-01T09:02:40;3.45;;;3.25;;
38487;SDS011;57384;51.986;4.458;2023-08-01T09:05:08;3.22;;;3.13;;
38487;SDS011;57384;51.986;4.458;2023-08-01T09:07:35;2.80;;;2.70;;
38487;SDS011;57384;51.986;4.458;2023-08-01T09:10:07;2.80;;;2.70;;
38487;SDS011;57384;51.986;4.458;2023-08-01T09:12:34;3.53;;;3.33;;
38487;SDS011;57384;51.986;4.458;2023-08-01T09:15:01;3.22;;;3.13;;
38487;SDS011;57384;51.986;4.458;2023-08-01T09:17:28;4.30;;;4.20;;
38487;SDS011;57384;51.986;4.458;2023-08-01T09:20:06;4.70;;;4.50;;
38487;SDS011;57384;51.986;4.458;2023-08-01T09:22:45;3.78;;;3.65;;
38487;SDS011;57384;51.986;4.458;2023-08-01T09:25:14;4.35;;;4.18;;
38487;SDS011;57384;51.986;4.458;2023-08-01T09:27:41;5.15;;;4.85;;
38487;SDS011;57384;51.986;4.458;2023-08-01T09:30:09;4.28;;;4.07;;
38487;SDS011;57384;51.986;4.458;2023-08-01T09:32:37;3.95;;;3.85;;
38487;SDS011;57384;51.986;4.458;2023-08-01T09:35:10;3.38;;;3.28;;
38487;SDS011;57384;51.986;4.458;2023-08-01T09:37:41;4.25;;;4.15;;
38487;SDS011;57384;51.986;4.458;2023-08-01T09:40:09;3.42;;;3.33;;
38487;SDS011;57384;51.986;4.458;2023-08-01T09:42:38;3.88;;;3.67;;
38487;SDS011;57384;51.986;4.458;2023-08-01T09:45:15;3.40;;;3.30;;
38487;SDS011;57384;51.986;4.458;2023-08-01T09:50:11;3.67;;;3.58;;
38487;SDS011;57384;51.986;4.458;2023-08-01T09:52:48;9.50;;;3.75;;
38487;SDS011;57384;51.986;4.458;2023-08-01T09:55:15;3.28;;;3.10;;
38487;SDS011;57384;51.986;4.458;2023-08-01T09:57:41;2.90;;;2.80;;
38487;SDS011;57384;51.986;4.458;2023-08-01T10:00:15;4.15;;;4.05;;
38487;SDS011;57384;51.986;4.458;2023-08-01T10:02:42;3.55;;;3.45;;
38487;SDS011;57384;51.986;4.458;2023-08-01T10:05:10;2.80;;;2.70;;
38487;SDS011;57384;51.986;4.458;2023-08-01T10:07:44;3.60;;;3.40;;
38487;SDS011;57384;51.986;4.458;2023-08-01T10:10:13;2.72;;;2.63;;
38487;SDS011;57384;51.986;4.458;2023-08-01T10:12:43;4.00;;;3.70;;
38487;SDS011;57384;51.986;4.458;2023-08-01T10:15:12;2.85;;;2.75;;
38487;SDS011;57384;51.986;4.458;2023-08-01T10:17:40;3.60;;;3.50;;
38487;SDS011;57384;51.986;4.458;2023-08-01T10:20:07;3.88;;;3.78;;
38487;SDS011;57384;51.986;4.458;2023-08-01T10:22:36;3.63;;;3.53;;
38487;SDS011;57384;51.986;4.458;2023-08-01T10:25:08;5.22;;;4.82;;
38487;SDS011;57384;51.986;4.458;2023-08-01T10:27:38;4.80;;;4.50;;
38487;SDS011;57384;51.986;4.458;2023-08-01T10:30:05;4.35;;;4.25;;
38487;SDS011;57384;51.986;4.458;2023-08-01T10:32:34;5.25;;;5.05;;
38487;SDS011;57384;51.986;4.458;2023-08-01T10:35:08;5.90;;;5.70;;
38487;SDS011;57384;51.986;4.458;2023-08-01T10:40:34;5.32;;;5.13;;
38487;SDS011;57384;51.986;4.458;2023-08-01T10:43:01;5.07;;;4.68;;
38487;SDS011;57384;51.986;4.458;2023-08-01T10:45:29;4.63;;;4.45;;
38487;SDS011;57384;51.986;4.458;2023-08-01T10:50:38;4.55;;;4.35;;
38487;SDS011;57384;51.986;4.458;2023-08-01T10:53:09;5.78;;;5.57;;
38487;SDS011;57384;51.986;4.458;2023-08-01T10:55:38;3.88;;;3.78;;
38487;SDS011;57384;51.986;4.458;2023-08-01T10:58:13;3.65;;;3.45;;
38487;SDS011;57384;51.986;4.458;2023-08-01T11:00:46;2.63;;;2.53;;
38487;SDS011;57384;51.986;4.458;2023-08-01T11:03:37;3.15;;;3.05;;
38487;SDS011;57384;51.986;4.458;2023-08-01T11:06:05;3.97;;;3.78;;
38487;SDS011;57384;51.986;4.458;2023-08-01T11:08:34;2.10;;;2.00;;
38487;SDS011;57384;51.986;4.458;2023-08-01T11:11:05;2.17;;;2.08;;
38487;SDS011;57384;51.986;4.458;2023-08-01T11:13:35;2.13;;;2.03;;
38487;SDS011;57384;51.986;4.458;2023-08-01T11:16:02;1.58;;;1.48;;
38487;SDS011;57384;51.986;4.458;2023-08-01T11:18:40;1.85;;;1.75;;
38487;SDS011;57384;51.986;4.458;2023-08-01T11:21:11;2.80;;;2.70;;
38487;SDS011;57384;51.986;4.458;2023-08-01T11:23:38;2.45;;;2.35;;
38487;SDS011;57384;51.986;4.458;2023-08-01T11:26:08;2.10;;;2.00;;
38487;SDS011;57384;51.986;4.458;2023-08-01T11:28:36;2.45;;;2.35;;
38487;SDS011;57384;51.986;4.458;2023-08-01T11:31:12;2.60;;;2.50;;
38487;SDS011;57384;51.986;4.458;2023-08-01T11:33:54;1.92;;;1.83;;
38487;SDS011;57384;51.986;4.458;2023-08-01T11:36:25;3.63;;;3.00;;
38487;SDS011;57384;51.986;4.458;2023-08-01T11:38:53;3.00;;;2.90;;
38487;SDS011;57384;51.986;4.458;2023-08-01T11:41:21;2.33;;;2.22;;
38487;SDS011;57384;51.986;4.458;2023-08-01T11:43:49;2.65;;;2.55;;
38487;SDS011;57384;51.986;4.458;2023-08-01T11:46:15;2.78;;;2.67;;
38487;SDS011;57384;51.986;4.458;2023-08-01T11:48:47;2.15;;;2.05;;
38487;SDS011;57384;51.986;4.458;2023-08-01T11:51:15;2.30;;;2.20;;
38487;SDS011;57384;51.986;4.458;2023-08-01T11:53:44;3.65;;;3.55;;
38487;SDS011;57384;51.986;4.458;2023-08-01T11:56:21;2.53;;;2.40;;
38487;SDS011;57384;51.986;4.458;2023-08-01T11:58:51;3.22;;;3.03;;
38487;SDS011;57384;51.986;4.458;2023-08-01T12:01:19;2.63;;;2.53;;
38487;SDS011;57384;51.986;4.458;2023-08-01T12:03:46;2.58;;;2.47;;
38487;SDS011;57384;51.986;4.458;2023-08-01T12:06:18;2.78;;;2.67;;
38487;SDS011;57384;51.986;4.458;2023-08-01T12:08:50;3.20;;;3.10;;
38487;SDS011;57384;51.986;4.458;2023-08-01T12:11:23;2.75;;;2.65;;
38487;SDS011;57384;51.986;4.458;2023-08-01T12:16:39;2.17;;;2.08;;
38487;SDS011;57384;51.986;4.458;2023-08-01T12:19:07;2.63;;;2.53;;
38487;SDS011;57384;51.986;4.458;2023-08-01T12:21:40;3.08;;;2.97;;
38487;SDS011;57384;51.986;4.458;2023-08-01T12:24:07;2.40;;;2.30;;
38487;SDS011;57384;51.986;4.458;2023-08-01T12:26:34;2.92;;;2.83;;
38487;SDS011;57384;51.986;4.458;2023-08-01T12:29:01;2.97;;;2.88;;
38487;SDS011;57384;51.986;4.458;2023-08-01T12:31:34;3.35;;;3.25;;
38487;SDS011;57384;51.986;4.458;2023-08-01T12:34:01;3.10;;;3.00;;
38487;SDS011;57384;51.986;4.458;2023-08-01T12:36:31;2.80;;;2.70;;
38487;SDS011;57384;51.986;4.458;2023-08-01T12:43:52;3.38;;;3.28;;
38487;SDS011;57384;51.986;4.458;2023-08-01T12:46:23;2.33;;;2.22;;
38487;SDS011;57384;51.986;4.458;2023-08-01T12:48:50;2.65;;;2.55;;
38487;SDS011;57384;51.986;4.458;2023-08-01T12:51:17;3.75;;;3.42;;
38487;SDS011;57384;51.986;4.458;2023-08-01T12:53:44;2.03;;;1.92;;
38487;SDS011;57384;51.986;4.458;2023-08-01T12:56:12;2.20;;;2.10;;
38487;SDS011;57384;51.986;4.458;2023-08-01T12:58:38;2.22;;;2.13;;
38487;SDS011;57384;51.986;4.458;2023-08-01T13:01:06;3.80;;;3.03;;
38487;SDS011;57384;51.986;4.458;2023-08-01T13:03:35;1.65;;;1.55;;
38487;SDS011;57384;51.986;4.458;2023-08-01T13:06:04;2.38;;;2.28;;
38487;SDS011;57384;51.986;4.458;2023-08-01T13:08:44;1.42;;;1.33;;
38487;SDS011;57384;51.986;4.458;2023-08-01T13:11:13;4.82;;;2.17;;
38487;SDS011;57384;51.986;4.458;2023-08-01T13:13:40;1.30;;;1.20;;
38487;SDS011;57384;51.986;4.458;2023-08-01T13:16:07;1.90;;;1.80;;
38487;SDS011;57384;51.986;4.458;2023-08-01T13:18:35;1.40;;;1.30;;
38487;SDS011;57384;51.986;4.458;2023-08-01T13:21:03;3.17;;;1.63;;
38487;SDS011;57384;51.986;4.458;2023-08-01T13:23:30;2.08;;;1.83;;
38487;SDS011;57384;51.986;4.458;2023-08-01T13:25:58;1.75;;;1.50;;
38487;SDS011;57384;51.986;4.458;2023-08-01T13:28:24;2.00;;;1.67;;
38487;SDS011;57384;51.986;4.458;2023-08-01T13:30:52;1.30;;;1.20;;
38487;SDS011;57384;51.986;4.458;2023-08-01T13:33:20;1.17;;;1.08;;
38487;SDS011;57384;51.986;4.458;2023-08-01T13:35:50;1.48;;;1.38;;
38487;SDS011;57384;51.986;4.458;2023-08-01T13:38:17;1.15;;;1.05;;
38487;SDS011;57384;51.986;4.458;2023-08-01T13:40:45;3.25;;;2.70;;
38487;SDS011;57384;51.986;4.458;2023-08-01T13:43:11;1.35;;;1.25;;
38487;SDS011;57384;51.986;4.458;2023-08-01T13:45:38;1.40;;;1.30;;
38487;SDS011;57384;51.986;4.458;2023-08-01T13:48:06;1.10;;;1.08;;
38487;SDS011;57384;51.986;4.458;2023-08-01T13:50:33;2.63;;;1.65;;
38487;SDS011;57384;51.986;4.458;2023-08-01T13:53:00;0.82;;;0.82;;
38487;SDS011;57384;51.986;4.458;2023-08-01T13:55:28;1.50;;;1.40;;
38487;SDS011;57384;51.986;4.458;2023-08-01T13:57:55;1.80;;;1.70;;
38487;SDS011;57384;51.986;4.458;2023-08-01T14:00:22;1.90;;;1.80;;
38487;SDS011;57384;51.986;4.458;2023-08-01T14:02:49;1.30;;;1.20;;
38487;SDS011;57384;51.986;4.458;2023-08-01T14:05:16;0.82;;;0.82;;
38487;SDS011;57384;51.986;4.458;2023-08-01T14:07:43;0.93;;;0.93;;
38487;SDS011;57384;51.986;4.458;2023-08-01T14:10:12;1.80;;;1.70;;
38487;SDS011;57384;51.986;4.458;2023-08-01T14:12:40;1.65;;;1.55;;
38487;SDS011;57384;51.986;4.458;2023-08-01T14:15:08;1.52;;;1.42;;
38487;SDS011;57384;51.986;4.458;2023-08-01T14:17:38;1.40;;;1.30;;
38487;SDS011;57384;51.986;4.458;2023-08-01T14:20:06;0.90;;;0.90;;
38487;SDS011;57384;51.986;4.458;2023-08-01T14:22:33;0.70;;;0.70;;
38487;SDS011;57384;51.986;4.458;2023-08-01T14:25:00;1.25;;;1.15;;
38487;SDS011;57384;51.986;4.458;2023-08-01T14:27:27;1.30;;;1.05;;
38487;SDS011;57384;51.986;4.458;2023-08-01T14:29:57;0.70;;;0.70;;
38487;SDS011;57384;51.986;4.458;2023-08-01T14:32:31;0.90;;;0.90;;
38487;SDS011;57384;51.986;4.458;2023-08-01T14:42:23;1.30;;;1.20;;
38487;SDS011;57384;51.986;4.458;2023-08-01T14:44:53;1.38;;;1.27;;
38487;SDS011;57384;51.986;4.458;2023-08-01T14:47:20;0.80;;;0.80;;
38487;SDS011;57384;51.986;4.458;2023-08-01T14:49:46;0.85;;;0.85;;
38487;SDS011;57384;51.986;4.458;2023-08-01T14:52:14;0.90;;;0.90;;
38487;SDS011;57384;51.986;4.458;2023-08-01T14:54:43;0.80;;;0.80;;
38487;SDS011;57384;51.986;4.458;2023-08-01T14:57:10;0.82;;;0.82;;
38487;SDS011;57384;51.986;4.458;2023-08-01T14:59:37;0.80;;;0.80;;
38487;SDS011;57384;51.986;4.458;2023-08-01T15:02:03;1.05;;;1.00;;
38487;SDS011;57384;51.986;4.458;2023-08-01T15:04:30;1.30;;;1.20;;
38487;SDS011;57384;51.986;4.458;2023-08-01T15:07:00;0.90;;;0.90;;
38487;SDS011;57384;51.986;4.458;2023-08-01T15:09:28;1.10;;;1.10;;
38487;SDS011;57384;51.986;4.458;2023-08-01T15:11:55;0.80;;;0.80;;
38487;SDS011;57384;51.986;4.458;2023-08-01T15:14:23;0.80;;;0.80;;
38487;SDS011;57384;51.986;4.458;2023-08-01T15:16:50;0.90;;;0.90;;
38487;SDS011;57384;51.986;4.458;2023-08-01T15:19:18;1.13;;;1.02;;
38487;SDS011;57384;51.986;4.458;2023-08-01T15:21:45;0.85;;;0.85;;